Time;durP1;ratioP1;P1;durP2;ratioP2;P2;SDS_P1;SDS_P2;PMS_P1;PMS_P2;Temp;Humidity;BMP_temperature;BMP_pressure;BME280_temperature;BME280_humidity;BME280_pressure;Samples;Min_cycle;Max_cycle;Signal;HPM_P1;HPM_P2
2023/01/08 00:01:04;;;;;;;17.60;6.33;;;;;;;-16.90;44.71;101447.88;4805622;29;20437;-81
2023/01/08 00:03:30;;;;;;;21.42;7.50;;;;;;;-17.28;44.28;101381.00;4805700;29;20115;-78
2023/01/08 00:06:00;;;;;;;18.20;7.03;;;;;;;-16.80;45.42;101448.31;4805540;29;20111;-80
2023/01/08 00:08:25;;;;;;;14.37;5.73;;;;;;;-16.77;44.56;101446.22;4790284;29;20050;-79
2023/01/08 00:10:55;;;;;;;28.07;6.57;;;;;;;-16.79;44.63;101452.59;4791084;29;20051;-80
2023/01/08 00:13:21;;;;;;;20.73;7.77;;;;;;;-16.81;43.74;101446.53;4805391;29;20062;-79
2023/01/08 00:15:47;;;;;;;15.53;6.63;;;;;;;-16.73;44.39;101449.97;4806542;29;20042;-79
2023/01/08 00:18:13;;;;;;;19.33;6.17;;;;;;;-17.18;44.09;101394.63;4823301;29;20042;-80
2023/01/08 00:20:44;;;;;;;17.60;6.63;;;;;;;-16.79;44.27;101452.59;4824768;29;20398;-80
2023/01/08 00:23:15;;;;;;;16.83;6.40;;;;;;;-16.81;44.17;101442.47;4809595;29;20838;-79
2023/01/08 00:25:41;;;;;;;17.67;6.10;;;;;;;-16.68;44.78;101452.38;4824508;29;20088;-78
2023/01/08 00:28:08;;;;;;;15.03;5.37;;;;;;;-16.71;44.75;101447.00;4824102;29;20535;-78
2023/01/08 00:30:35;;;;;;;16.87;6.17;;;;;;;-16.68;44.73;101434.94;4807830;29;20231;-78
2023/01/08 00:33:01;;;;;;;21.47;6.87;;;;;;;-16.51;44.40;101446.09;4824083;29;20127;-80
2023/01/08 00:35:27;;;;;;;19.00;7.13;;;;;;;-16.50;44.71;101437.91;4824623;29;20141;-79
2023/01/08 00:37:54;;;;;;;15.63;6.80;;;;;;;-16.34;44.42;101447.28;4823039;29;20180;-79
2023/01/08 00:40:20;;;;;;;14.73;6.20;;;;;;;-16.30;44.37;101460.31;4829501;29;20046;-79
2023/01/08 00:42:45;;;;;;;19.23;6.53;;;;;;;-16.25;44.47;101460.91;4832581;29;20065;-80
2023/01/08 00:45:12;;;;;;;17.70;6.23;;;;;;;-16.46;44.70;101420.16;4826884;29;20050;-80
2023/01/08 00:47:37;;;;;;;18.60;7.23;;;;;;;-16.20;44.17;101454.88;4826691;29;20054;-80
2023/01/08 00:50:04;;;;;;;18.13;6.00;;;;;;;-16.17;44.49;101444.41;4826954;29;20107;-79
2023/01/08 00:52:30;;;;;;;16.97;4.77;;;;;;;-16.02;45.56;101452.88;4827179;29;20053;-78
2023/01/08 00:54:56;;;;;;;13.90;6.23;;;;;;;-15.93;43.93;101461.47;4826253;29;20508;-78
2023/01/08 00:57:22;;;;;;;10.37;5.10;;;;;;;-15.89;44.68;101440.31;4827458;29;20092;-80
2023/01/08 00:59:48;;;;;;;12.87;5.67;;;;;;;-15.88;44.03;101454.59;4810279;29;20050;-78
2023/01/08 01:02:14;;;;;;;11.93;6.23;;;;;;;-15.87;44.38;101443.88;4824931;29;20149;-78
2023/01/08 01:04:40;;;;;;;11.87;5.50;;;;;;;-15.83;44.35;101456.88;4826645;29;20046;-79
2023/01/08 01:07:06;;;;;;;15.20;6.10;;;;;;;-16.23;44.34;101385.56;4810280;29;20548;-80
2023/01/08 01:09:32;;;;;;;17.10;6.23;;;;;;;-15.95;45.03;101418.88;4826197;29;20534;-78
2023/01/08 01:11:58;;;;;;;15.30;5.97;;;;;;;-15.82;44.73;101426.25;4825488;29;20102;-80
2023/01/08 01:14:24;;;;;;;14.57;6.17;;;;;;;-15.67;44.32;101447.19;4832215;29;20046;-79
2023/01/08 01:16:50;;;;;;;13.27;5.23;;;;;;;-15.66;44.94;101430.59;4825444;29;20027;-80
2023/01/08 01:19:17;;;;;;;20.60;5.30;;;;;;;-15.52;43.79;101445.63;4826210;29;20022;-79
2023/01/08 01:21:43;;;;;;;16.00;5.30;;;;;;;-15.46;44.54;101448.88;4811964;29;20076;-79
2023/01/08 01:24:14;;;;;;;15.97;6.07;;;;;;;-15.41;44.24;101451.03;4828151;29;20053;-79
2023/01/08 01:26:44;;;;;;;20.30;6.87;;;;;;;-15.37;45.19;101456.56;4813743;29;20031;-80
2023/01/08 01:29:10;;;;;;;16.27;6.23;;;;;;;-15.39;44.77;101452.13;4824025;29;20043;-79
2023/01/08 01:31:36;;;;;;;14.70;5.93;;;;;;;-15.51;45.14;101436.53;4791709;29;20100;-80
2023/01/08 01:34:02;;;;;;;15.50;5.97;;;;;;;-15.60;45.40;101424.72;4806504;29;20053;-79
2023/01/08 01:36:28;;;;;;;20.90;7.13;;;;;;;-15.52;45.73;101420.66;4807303;29;20050;-80
2023/01/08 01:38:56;;;;;;;15.20;6.47;;;;;;;-15.23;45.36;101447.38;4807836;29;20042;-79
2023/01/08 01:41:52;;;;;;;12.27;5.53;;;;;;;-15.31;45.76;101427.34;4794918;29;20049;-78
2023/01/08 01:44:39;;;;;;;14.83;5.90;;;;;;;-14.94;46.14;101460.84;4804288;29;20085;-80
2023/01/08 01:47:27;;;;;;;15.93;6.50;;;;;;;-14.95;45.06;101436.56;4774871;29;20043;-80
2023/01/08 01:50:14;;;;;;;24.23;6.90;;;;;;;-14.84;45.15;101441.19;4789509;29;20471;-80
2023/01/08 01:52:59;;;;;;;13.33;4.37;;;;;;;-14.69;44.97;101449.63;4805234;29;20070;-80
2023/01/08 01:55:26;;;;;;;16.57;5.70;;;;;;;-14.86;45.29;101414.25;4820350;29;20018;-79
2023/01/08 01:58:02;;;;;;;12.07;6.60;;;;;;;-14.64;45.52;101470.13;4809167;29;20465;-81
2023/01/08 02:00:29;;;;;;;13.23;4.53;;;;;;;-14.69;45.63;101441.25;4809704;29;20046;-79
2023/01/08 02:02:55;;;;;;;15.63;5.37;;;;;;;-14.46;45.73;101471.41;4809475;29;20043;-80
2023/01/08 02:05:27;;;;;;;12.77;5.57;;;;;;;-14.45;45.55;101462.31;4807365;29;20049;-80
2023/01/08 02:08:20;;;;;;;11.93;5.03;;;;;;;-14.43;45.09;101445.84;4789819;29;20143;-78
2023/01/08 02:11:09;;;;;;;7.57;3.93;;;;;;;-14.81;45.99;101377.28;4792347;29;20047;-81
2023/01/08 02:13:43;;;;;;;11.37;4.30;;;;;;;-14.41;45.62;101447.81;4808379;29;20133;-79
2023/01/08 02:16:46;;;;;;;11.43;4.50;;;;;;;-14.42;45.79;101428.53;4774477;29;20051;-79
2023/01/08 02:19:51;;;;;;;10.97;4.40;;;;;;;-14.19;46.86;101442.81;4789351;30;20047;-82
2023/01/08 02:23:05;;;;;;;10.03;4.00;;;;;;;-14.12;46.08;101444.41;4789454;29;20425;-79
2023/01/08 02:26:01;;;;;;;12.47;4.33;;;;;;;-14.04;45.92;101443.69;4803886;29;20046;-79
2023/01/08 02:28:30;;;;;;;8.70;3.70;;;;;;;-13.93;45.67;101438.31;4790519;29;20051;-79
2023/01/08 02:30:56;;;;;;;7.47;3.60;;;;;;;-14.07;45.80;101403.31;4803835;29;20518;-79
2023/01/08 02:33:26;;;;;;;10.47;4.53;;;;;;;-14.09;45.81;101392.22;4789017;29;20053;-79
2023/01/08 02:36:12;;;;;;;8.27;3.80;;;;;;;-13.95;46.18;101407.19;4774578;30;20054;-79
2023/01/08 02:38:46;;;;;;;9.97;4.07;;;;;;;-13.75;45.96;101438.63;4796120;29;20127;-80
2023/01/08 02:41:14;;;;;;;11.03;4.30;;;;;;;-13.98;46.33;101391.81;4811212;29;20058;-79
2023/01/08 02:43:51;;;;;;;10.70;3.73;;;;;;;-13.71;46.28;101423.22;4797576;29;20125;-80
2023/01/08 02:46:24;;;;;;;8.03;3.60;;;;;;;-13.58;45.53;101444.66;4781074;30;20039;-79
2023/01/08 02:48:57;;;;;;;13.07;4.23;;;;;;;-13.59;45.98;101426.22;4796117;29;20055;-79
2023/01/08 02:51:35;;;;;;;12.80;4.23;;;;;;;-13.37;46.26;101448.66;4790984;29;20054;-79
2023/01/08 02:54:08;;;;;;;15.77;5.00;;;;;;;-13.32;46.18;101442.56;4788611;29;20415;-77
2023/01/08 02:56:47;;;;;;;14.97;3.70;;;;;;;-13.33;46.32;101435.75;4790499;29;20047;-79
2023/01/08 02:59:14;;;;;;;10.83;4.07;;;;;;;-13.36;46.29;101428.81;4790039;29;20061;-78
2023/01/08 03:01:41;;;;;;;8.07;3.67;;;;;;;-13.27;45.96;101441.47;4803402;29;20054;-78
2023/01/08 03:04:14;;;;;;;7.67;3.17;;;;;;;-13.66;45.95;101372.06;4789624;29;20043;-80
2023/01/08 03:06:41;;;;;;;10.63;3.73;;;;;;;-13.52;46.07;101400.25;4788756;29;20047;-79
2023/01/08 03:09:08;;;;;;;11.60;3.27;;;;;;;-13.48;46.53;101394.88;4802332;29;20062;-78
2023/01/08 03:11:43;;;;;;;12.07;4.03;;;;;;;-13.46;46.26;101395.94;4793021;29;20050;-80
2023/01/08 03:14:29;;;;;;;7.10;3.43;;;;;;;-13.15;46.50;101426.91;4797647;29;20054;-80
2023/01/08 03:17:17;;;;;;;7.27;3.30;;;;;;;-13.19;46.70;101429.78;4809259;29;20042;-79
2023/01/08 03:19:51;;;;;;;7.03;3.03;;;;;;;-13.18;46.65;101409.03;4825334;29;20507;-79
2023/01/08 03:22:18;;;;;;;11.17;3.17;;;;;;;-12.97;46.77;101438.06;4824566;29;20053;-78
2023/01/08 03:24:49;;;;;;;11.23;4.40;;;;;;;-12.92;46.20;101441.13;4824403;29;20042;-78
2023/01/08 03:27:20;;;;;;;13.23;4.10;;;;;;;-13.41;46.35;101363.88;4825411;29;20133;-80
2023/01/08 03:29:50;;;;;;;8.60;3.67;;;;;;;-12.87;46.60;101445.00;4825279;29;20054;-79
2023/01/08 03:32:20;;;;;;;7.30;3.97;;;;;;;-12.84;46.42;101445.34;4823624;29;20054;-79
2023/01/08 03:34:49;;;;;;;8.80;3.80;;;;;;;-12.88;46.25;101444.13;4808889;29;20097;-78
2023/01/08 03:37:20;;;;;;;11.27;3.47;;;;;;;-12.92;46.57;101416.91;4808927;29;20046;-79
2023/01/08 03:39:58;;;;;;;12.48;4.05;;;;;;;-12.75;46.57;101447.97;4823776;29;20050;-79
2023/01/08 03:42:25;;;;;;;6.57;3.63;;;;;;;-12.70;46.43;101451.00;4808825;29;20046;-79
2023/01/08 03:44:51;;;;;;;11.47;3.60;;;;;;;-12.87;46.38;101419.94;4808950;29;20564;-80
2023/01/08 03:47:20;;;;;;;6.10;3.00;;;;;;;-12.76;46.63;101439.56;4808747;29;20083;-80
2023/01/08 03:49:49;;;;;;;7.27;3.13;;;;;;;-12.97;46.59;101417.16;4823692;29;20043;-80
2023/01/08 03:52:30;;;;;;;8.50;3.73;;;;;;;-12.87;46.60;101445.00;4824956;29;20073;-78
2023/01/08 03:54:56;;;;;;;13.70;3.70;;;;;;;-13.16;46.67;101405.09;4823765;29;20041;-79
2023/01/08 03:57:22;;;;;;;8.23;2.40;;;;;;;-12.82;46.51;101463.97;4823741;29;20042;-80
2023/01/08 03:59:48;;;;;;;6.23;3.13;;;;;;;-12.99;46.95;101436.13;4823210;29;20050;-81
2023/01/08 04:02:15;;;;;;;6.03;2.03;;;;;;;-12.76;46.77;101458.72;4824751;29;20132;-78
2023/01/08 04:04:41;;;;;;;4.90;1.80;;;;;;;-12.57;46.85;101461.66;4808575;29;20046;-77
2023/01/08 04:07:10;;;;;;;7.17;1.60;;;;;;;-12.54;47.25;101423.47;4823623;29;20050;-79
2023/01/08 04:09:36;;;;;;;6.53;1.93;;;;;;;-12.14;47.33;101461.31;4823041;29;20488;-79
2023/01/08 04:12:03;;;;;;;4.43;2.03;;;;;;;-12.09;46.89;101456.78;4824588;29;20073;-78
2023/01/08 04:14:29;;;;;;;7.87;2.10;;;;;;;-11.99;47.24;101443.59;4801878;29;20127;-78
2023/01/08 04:16:55;;;;;;;5.13;2.50;;;;;;;-11.85;47.24;101456.00;4805443;29;20042;-79
2023/01/08 04:19:21;;;;;;;4.60;1.80;;;;;;;-11.92;47.51;101437.63;4806393;29;20600;-79
2023/01/08 04:21:51;;;;;;;5.93;2.13;;;;;;;-11.90;46.85;101452.09;4806868;29;20054;-78
2023/01/08 04:24:18;;;;;;;2.73;1.87;;;;;;;-11.84;47.12;101445.22;4814669;29;20045;-80
2023/01/08 04:26:44;;;;;;;6.27;2.47;;;;;;;-11.76;47.11;101448.56;4808371;29;20049;-78
2023/01/08 04:29:12;;;;;;;4.90;1.87;;;;;;;-11.75;47.34;101436.88;4810276;29;20110;-79
2023/01/08 04:31:38;;;;;;;5.13;1.70;;;;;;;-11.76;47.38;101417.50;4815265;29;20054;-79
2023/01/08 04:34:04;;;;;;;4.40;1.73;;;;;;;-11.57;47.42;101446.34;4818520;29;20062;-79
2023/01/08 04:36:30;;;;;;;5.73;2.10;;;;;;;-11.51;47.25;101453.69;4803224;29;20493;-78
2023/01/08 04:38:56;;;;;;;3.73;1.80;;;;;;;-11.47;47.69;101427.25;4804342;29;20571;-79
2023/01/08 04:41:22;;;;;;;5.10;2.20;;;;;;;-11.53;47.00;101425.84;4822349;29;20050;-80
2023/01/08 04:43:48;;;;;;;3.50;1.70;;;;;;;-11.59;47.59;101425.22;4809498;29;20062;-79
2023/01/08 04:46:14;;;;;;;3.97;1.63;;;;;;;-11.43;48.04;101447.81;4813234;29;20146;-78
2023/01/08 04:48:40;;;;;;;3.27;1.73;;;;;;;-11.36;47.52;101441.81;4801099;29;20101;-78
2023/01/08 04:51:07;;;;;;;4.67;2.20;;;;;;;-11.50;47.26;101420.28;4820460;29;20114;-79
2023/01/08 04:53:35;;;;;;;4.97;2.30;;;;;;;-11.26;47.85;101446.22;4822082;29;20050;-79
2023/01/08 04:56:04;;;;;;;5.23;1.80;;;;;;;-11.22;48.03;101438.22;4799755;29;20106;-78
2023/01/08 04:58:30;;;;;;;3.70;1.77;;;;;;;-11.30;47.45;101432.41;4806601;29;20065;-77
2023/01/08 05:00:56;;;;;;;5.97;2.20;;;;;;;-11.25;47.74;101430.41;4806018;29;20425;-79
2023/01/08 05:03:21;;;;;;;4.23;1.97;;;;;;;-11.40;47.83;101407.94;4806893;29;20077;-79
2023/01/08 05:05:48;;;;;;;3.80;2.00;;;;;;;-11.48;47.49;101397.81;4806436;29;20210;-79
2023/01/08 05:08:13;;;;;;;6.50;2.20;;;;;;;-11.28;47.96;101427.56;4805897;29;20061;-78
2023/01/08 05:10:40;;;;;;;5.10;1.93;;;;;;;-11.32;47.51;101413.75;4804464;29;20047;-80
2023/01/08 05:13:06;;;;;;;4.00;2.00;;;;;;;-11.30;47.93;101424.00;4804289;29;20489;-80
2023/01/08 05:15:32;;;;;;;3.83;2.17;;;;;;;-11.30;47.84;101429.88;4820630;29;20198;-80
2023/01/08 05:18:04;;;;;;;16.43;5.73;;;;;;;-11.16;48.01;101440.50;4833456;29;20136;-78
2023/01/08 05:20:33;;;;;;;8.27;2.90;;;;;;;-11.24;47.22;101432.16;4829428;29;20107;-80
2023/01/08 05:23:00;;;;;;;4.33;2.10;;;;;;;-11.24;48.10;101439.69;4824044;29;20454;-79
2023/01/08 05:25:26;;;;;;;5.20;1.87;;;;;;;-11.08;48.12;101454.75;4823883;29;20127;-79
2023/01/08 05:27:52;;;;;;;6.67;2.77;;;;;;;-11.48;47.81;101390.28;4823947;29;20038;-80
2023/01/08 05:30:19;;;;;;;10.90;3.53;;;;;;;-11.21;48.25;101465.16;4822805;29;20496;-81
2023/01/08 05:32:45;;;;;;;12.33;3.90;;;;;;;-11.35;47.67;101466.22;4822686;29;20046;-79
2023/01/08 05:35:11;;;;;;;13.67;5.97;;;;;;;-11.48;48.10;101460.63;4822700;29;20054;-80
2023/01/08 05:37:38;;;;;;;9.83;3.60;;;;;;;-11.59;48.25;101465.44;4838250;29;20026;-79
2023/01/08 05:40:04;;;;;;;8.13;3.77;;;;;;;-11.80;47.55;101469.03;4809657;29;20054;-81
2023/01/08 05:42:33;;;;;;;9.53;3.77;;;;;;;-12.11;47.92;101446.59;4821128;29;20050;-79
2023/01/08 05:44:59;;;;;;;12.23;4.43;;;;;;;-12.24;47.74;101453.50;4823193;29;20050;-84
2023/01/08 05:47:31;;;;;;;9.77;4.37;;;;;;;-12.65;47.80;101418.19;4822419;29;20082;-80
2023/01/08 05:49:57;;;;;;;10.80;4.90;;;;;;;-12.77;47.66;101442.81;4822162;29;20046;-80
2023/01/08 05:52:24;;;;;;;9.40;4.13;;;;;;;-13.22;47.89;101419.44;4821687;29;20038;-80
2023/01/08 05:54:50;;;;;;;11.07;4.50;;;;;;;-13.02;48.22;101474.31;4806882;29;20045;-81
2023/01/08 05:57:16;;;;;;;11.13;4.43;;;;;;;-13.40;48.86;101414.16;4823286;29;20039;-80
2023/01/08 05:59:43;;;;;;;8.77;4.17;;;;;;;-13.18;48.50;101470.06;4824949;29;20069;-80
2023/01/08 06:02:09;;;;;;;11.20;4.00;;;;;;;-13.27;48.28;101445.56;4823075;29;20042;-80
2023/01/08 06:04:35;;;;;;;11.30;4.50;;;;;;;-13.20;48.20;101465.59;4809020;29;20537;-80
2023/01/08 06:07:01;;;;;;;11.37;4.47;;;;;;;-13.22;47.58;101470.41;4824371;29;20055;-80
2023/01/08 06:09:27;;;;;;;12.43;4.93;;;;;;;-13.33;47.42;101455.81;4823817;29;20054;-78
2023/01/08 06:11:53;;;;;;;11.17;4.50;;;;;;;-13.40;47.71;101458.38;4823670;29;20424;-78
2023/01/08 06:14:19;;;;;;;12.00;5.10;;;;;;;-13.49;47.96;101446.59;4818050;29;20090;-80
2023/01/08 06:16:45;;;;;;;10.47;4.10;;;;;;;-13.57;47.66;101451.47;4807452;29;20078;-80
2023/01/08 06:19:17;;;;;;;12.47;4.77;;;;;;;-14.12;47.73;101372.72;4804635;29;20095;-80
2023/01/08 06:21:44;;;;;;;9.80;4.63;;;;;;;-14.22;47.59;101377.41;4803568;29;20074;-80
2023/01/08 06:24:10;;;;;;;8.67;4.23;;;;;;;-14.08;47.79;101416.53;4805435;29;20070;-81
2023/01/08 06:26:36;;;;;;;12.83;4.93;;;;;;;-14.16;48.10;101419.75;4805302;29;20043;-81
2023/01/08 06:29:03;;;;;;;14.30;4.57;;;;;;;-13.99;47.67;101452.59;4806954;29;20061;-80
2023/01/08 06:31:29;;;;;;;14.37;4.80;;;;;;;-14.00;47.43;101430.78;4807152;29;20068;-80
2023/01/08 06:33:54;;;;;;;14.60;5.33;;;;;;;-13.94;47.18;101426.50;4806949;29;20096;-80
2023/01/08 06:36:20;;;;;;;14.00;5.40;;;;;;;-13.55;47.54;101439.97;4809809;29;20194;-81
2023/01/08 06:38:47;;;;;;;18.53;6.00;;;;;;;-12.29;48.11;101457.16;4819007;29;20068;-80
2023/01/08 06:41:13;;;;;;;13.23;5.67;;;;;;;-10.83;47.78;101442.22;4814266;29;20494;-81
2023/01/08 06:43:39;;;;;;;11.50;4.73;;;;;;;-9.96;47.12;101453.38;4809556;29;20134;-80
2023/01/08 06:46:07;;;;;;;15.90;5.70;;;;;;;-9.94;46.34;101449.41;4805527;29;20066;-81
2023/01/08 06:48:37;;;;;;;13.93;4.73;;;;;;;-10.27;45.57;101450.34;4805435;29;20051;-79
2023/01/08 06:51:04;;;;;;;9.50;5.27;;;;;;;-10.64;45.53;101465.13;4811823;29;20141;-79
2023/01/08 06:53:30;;;;;;;11.37;4.73;;;;;;;-11.11;45.70;101411.69;4806007;29;20049;-80
2023/01/08 06:55:57;;;;;;;15.23;5.37;;;;;;;-11.12;45.46;101465.22;4808559;29;20513;-79
2023/01/08 06:58:27;;;;;;;13.50;5.37;;;;;;;-11.39;45.63;101457.47;4806682;29;20043;-82
2023/01/08 07:00:57;;;;;;;13.67;5.23;;;;;;;-11.60;45.52;101463.66;4806934;29;20039;-79
2023/01/08 07:03:26;;;;;;;13.97;5.80;;;;;;;-12.63;45.75;101323.94;4806999;29;20057;-79
2023/01/08 07:05:56;;;;;;;16.07;5.60;;;;;;;-12.43;45.82;101373.72;4808248;29;20141;-79
2023/01/08 07:08:23;;;;;;;16.07;5.70;;;;;;;-12.12;45.48;101443.91;4807618;29;20078;-78
2023/01/08 07:10:48;;;;;;;14.30;6.23;;;;;;;-12.43;45.82;101375.34;4806325;29;20051;-80
2023/01/08 07:13:35;;;;;;;11.97;5.13;;;;;;;-12.92;45.75;101275.66;4825141;24;20095;-79
2023/01/08 07:16:06;;;;;;;13.63;5.27;;;;;;;-11.62;45.70;101424.91;4806165;29;20055;-79
2023/01/08 07:19:09;;;;;;;13.90;5.77;;;;;;;-11.00;45.52;101476.56;4809233;29;20081;-80
2023/01/08 07:21:38;;;;;;;15.80;5.80;;;;;;;-10.81;45.63;101512.06;4783019;29;20136;-78
2023/01/08 07:24:13;;;;;;;9.13;4.27;;;;;;;-12.42;45.32;101204.88;4812404;29;20509;-79
2023/01/08 07:27:01;;;;;;;15.83;5.67;;;;;;;-11.66;45.19;101332.34;4817234;29;20134;-81
2023/01/08 07:29:27;;;;;;;14.27;6.10;;;;;;;-10.80;45.26;101488.69;4816644;29;20070;-80
2023/01/08 07:31:53;;;;;;;12.33;5.20;;;;;;;-10.67;45.02;101487.47;4797333;29;20517;-79
2023/01/08 07:34:19;;;;;;;14.30;6.07;;;;;;;-10.96;44.79;101430.91;4811237;29;20505;-81
2023/01/08 07:36:45;;;;;;;16.47;6.07;;;;;;;-10.50;45.08;101489.19;4808770;29;20047;-81
2023/01/08 07:39:11;;;;;;;15.10;6.00;;;;;;;-10.62;44.49;101469.56;4814584;29;20049;-80
2023/01/08 07:41:44;;;;;;;19.77;7.03;;;;;;;-10.49;45.18;101479.28;4821019;29;20061;-80
2023/01/08 07:44:10;;;;;;;;;;;;;;;-10.27;45.19;101490.63;4817253;29;20107;-80
2023/01/08 07:46:36;;;;;;;20.17;7.63;;;;;;;-10.22;44.70;101475.22;4809351;29;19929;-81
2023/01/08 07:49:02;;;;;;;22.53;9.00;;;;;;;-9.87;43.98;101495.50;4824395;29;20079;-81
2023/01/08 07:51:28;;;;;;;23.33;9.57;;;;;;;-8.61;45.18;101502.59;4823157;29;20055;-81
2023/01/08 07:53:57;;;;;;;19.60;7.40;;;;;;;-6.99;44.47;101501.34;4790618;29;20049;-80
2023/01/08 07:56:24;;;;;;;20.08;8.07;;;;;;;-5.73;43.64;101491.72;4807258;29;20043;-80
2023/01/08 07:58:50;;;;;;;22.38;8.27;;;;;;;-4.06;42.85;101499.13;4807360;29;20106;-79
2023/01/08 08:01:16;;;;;;;17.73;8.63;;;;;;;-2.66;41.83;101438.06;4791179;29;20046;-82
2023/01/08 08:03:42;;;;;;;19.00;8.90;;;;;;;-1.48;40.22;101474.16;4808023;29;20053;-81
2023/01/08 08:06:09;;;;;;;18.42;8.05;;;;;;;-0.05;40.40;101454.22;4817415;29;20078;-78
2023/01/08 08:08:35;;;;;;;16.83;8.27;;;;;;;1.12;38.61;101446.44;4791927;29;20050;-80
2023/01/08 08:11:02;;;;;;;16.02;8.25;;;;;;;2.86;37.54;101465.72;4805807;29;20042;-81
2023/01/08 08:13:28;;;;;;;17.90;9.60;;;;;;;4.01;34.94;101447.88;4806686;29;20067;-80
2023/01/08 08:15:54;;;;;;;18.38;9.65;;;;;;;5.05;33.79;101432.44;4803511;29;20039;-81
2023/01/08 08:18:20;;;;;;;18.55;9.48;;;;;;;6.28;33.35;101448.25;4788725;29;20160;-81
2023/01/08 08:20:48;;;;;;;19.70;9.50;;;;;;;7.30;32.31;101442.03;4787279;29;20054;-81
2023/01/08 08:23:14;;;;;;;17.48;9.43;;;;;;;7.57;31.28;101400.53;4802214;29;20086;-78
2023/01/08 08:25:47;;;;;;;15.90;9.13;;;;;;;8.12;30.42;101414.16;4787393;29;20035;-78
2023/01/08 08:28:33;;;;;;;16.13;9.05;;;;;;;8.38;28.79;101432.13;4787972;30;20054;-79
2023/01/08 08:30:59;;;;;;;18.67;9.52;;;;;;;8.35;29.38;101407.84;4794112;29;20526;-79
2023/01/08 08:33:25;;;;;;;20.40;10.57;;;;;;;8.51;28.03;101427.28;4792934;29;20043;-79
2023/01/08 08:35:51;;;;;;;20.15;9.98;;;;;;;8.20;28.32;101405.72;4788277;29;20065;-80
2023/01/08 08:38:17;;;;;;;19.90;10.77;;;;;;;8.39;27.85;101426.09;4787553;29;20488;-80
2023/01/08 08:40:43;;;;;;;17.90;10.43;;;;;;;8.25;26.93;101391.16;4788216;29;20047;-84
2023/01/08 08:43:12;;;;;;;20.25;11.40;;;;;;;8.55;27.00;101427.41;4787030;30;20050;-82
2023/01/08 08:45:38;;;;;;;18.35;10.65;;;;;;;9.13;26.41;101426.19;4787715;29;20043;-82
2023/01/08 08:48:28;;;;;;;16.38;10.00;;;;;;;9.46;25.43;101405.28;4788658;29;20043;-83
2023/01/08 08:51:57;;;;;;;20.35;11.00;;;;;;;7.17;24.96;101314.78;4803315;29;20126;-84
2023/01/08 08:54:56;;;;;;;20.20;11.15;;;;;;;4.81;25.37;101389.38;4788633;29;20473;-81
2023/01/08 08:57:26;;;;;;;19.40;11.18;;;;;;;2.46;26.05;101287.31;4784331;29;20112;-77
2023/01/08 09:00:06;;;;;;;23.63;11.23;;;;;;;1.39;26.89;101346.16;4805151;29;20043;-82
2023/01/08 09:02:35;;;;;;;21.00;11.32;;;;;;;1.33;27.57;101433.91;4789451;29;20067;-80
2023/01/08 09:05:45;;;;;;;20.38;10.77;;;;;;;0.94;28.24;101278.78;4776641;29;20042;-81
2023/01/08 09:08:32;;;;;;;17.17;9.30;;;;;;;2.19;28.20;101176.41;4790273;29;20055;-80
2023/01/08 09:11:02;;;;;;;21.05;10.68;;;;;;;5.63;27.03;101417.44;4803374;29;20055;-80
2023/01/08 09:13:28;;;;;;;20.38;10.52;;;;;;;7.00;26.11;101416.94;4803686;29;20095;-85
2023/01/08 09:16:06;;;;;;;19.77;11.05;;;;;;;8.02;25.05;101396.63;4775741;30;20060;-79
2023/01/08 09:18:32;;;;;;;22.05;11.25;;;;;;;8.34;24.28;101347.28;4788273;30;20047;-81
2023/01/08 09:20:58;;;;;;;17.85;11.15;;;;;;;9.36;24.45;101405.91;4773085;30;20082;-78
2023/01/08 09:23:24;;;;;;;20.38;10.85;;;;;;;9.67;23.82;101380.59;4769964;30;20056;-81
2023/01/08 09:25:59;;;;;;;16.50;9.55;;;;;;;9.77;22.78;101399.84;4785382;29;20044;-81
2023/01/08 09:28:28;;;;;;;16.02;9.20;;;;;;;9.79;23.00;101391.22;4768524;29;20044;-81
2023/01/08 09:30:58;;;;;;;18.15;10.48;;;;;;;9.83;22.72;101332.34;4783499;30;20418;-82
2023/01/08 09:33:30;;;;;;;19.73;11.20;;;;;;;10.85;23.30;101407.00;4784495;29;20057;-79
2023/01/08 09:36:08;;;;;;;16.17;9.38;;;;;;;11.68;22.82;101395.09;4770626;30;20655;-80
2023/01/08 09:39:26;;;;;;;14.65;8.23;;;;;;;10.22;22.46;101281.00;4764005;30;20452;-81
2023/01/08 09:41:58;;;;;;;10.77;6.47;;;;;;;10.19;22.39;101391.09;4782535;29;20072;-81
2023/01/08 09:44:29;;;;;;;14.75;8.05;;;;;;;8.86;22.73;101355.47;4783498;30;20047;-82
2023/01/08 09:46:57;;;;;;;13.32;7.35;;;;;;;8.21;23.46;101361.66;4783457;29;20039;-81
2023/01/08 09:49:38;;;;;;;11.60;6.82;;;;;;;8.48;23.30;101351.97;4768796;29;20048;-80
2023/01/08 09:52:20;;;;;;;13.82;7.60;;;;;;;9.04;23.23;101399.16;4782868;29;20131;-81
2023/01/08 09:54:49;;;;;;;11.77;7.13;;;;;;;9.67;23.30;101406.59;4783284;30;20051;-80
2023/01/08 09:57:20;;;;;;;11.50;6.80;;;;;;;10.32;23.14;101388.72;4782640;30;20128;-79
2023/01/08 09:59:48;;;;;;;11.98;6.97;;;;;;;10.06;22.48;101379.59;4768474;29;20047;-80
2023/01/08 10:02:24;;;;;;;13.00;6.72;;;;;;;8.38;22.33;101333.56;4784667;29;20055;-81
2023/01/08 10:04:57;;;;;;;12.25;7.15;;;;;;;7.48;23.03;101402.88;4784221;30;20131;-81
2023/01/08 10:07:25;;;;;;;13.10;7.20;;;;;;;6.30;23.31;101393.97;4784270;30;20525;-81
2023/01/08 10:10:36;;;;;;;13.60;7.15;;;;;;;4.28;24.31;101269.50;4783749;29;20044;-81
2023/01/08 10:13:05;;;;;;;15.32;8.60;;;;;;;4.21;24.13;101359.44;4783544;29;20063;-81
2023/01/08 10:15:35;;;;;;;18.92;9.98;;;;;;;3.32;25.27;101410.44;4802262;29;20103;-81
2023/01/08 10:18:13;;;;;;;20.20;10.43;;;;;;;2.30;24.87;101413.25;4805577;29;20047;-82
2023/01/08 10:20:57;;;;;;;19.77;10.80;;;;;;;1.13;25.63;101430.25;4793968;29;20555;-82
2023/01/08 10:23:29;;;;;;;22.35;11.52;;;;;;;-1.28;26.24;101205.59;4803917;29;20085;-81
2023/01/08 10:26:12;;;;;;;;;;;;;;;;;;;;;
2023/01/08 10:29:06;;;;;;;25.25;11.57;;;;;;;-1.78;27.75;101377.75;4804686;29;20070;-79
2023/01/08 10:31:54;;;;;;;29.55;12.73;;;;;;;-2.25;27.97;101429.88;4823098;29;20401;-79
2023/01/08 10:34:25;;;;;;;20.58;11.00;;;;;;;-3.96;28.57;101223.47;4831355;29;20053;-82
2023/01/08 10:36:52;;;;;;;19.77;10.07;;;;;;;-3.35;28.71;101399.22;4808811;29;20174;-81
2023/01/08 10:39:26;;;;;;;19.08;9.88;;;;;;;-3.59;29.18;101432.28;4819086;29;20099;-81
2023/01/08 10:42:03;;;;;;;23.17;10.02;;;;;;;-4.02;29.33;101446.84;4803369;29;20063;-82
2023/01/08 10:44:38;;;;;;;21.48;10.55;;;;;;;-4.43;30.03;101442.88;4803704;29;20592;-82
2023/01/08 10:47:17;;;;;;;19.70;10.50;;;;;;;-5.26;30.42;101361.91;4803404;29;20126;-81
2023/01/08 10:49:53;;;;;;;22.13;10.73;;;;;;;-5.62;30.58;101351.47;4817033;29;20047;-83
2023/01/08 10:52:31;;;;;;;19.23;10.15;;;;;;;-5.62;31.21;101406.38;4793046;30;20479;-82
2023/01/08 10:55:26;;;;;;;22.38;10.25;;;;;;;-5.82;31.63;101409.81;4789233;29;20054;-83
2023/01/08 10:58:11;;;;;;;20.40;10.95;;;;;;;-6.57;31.84;101335.25;4789028;29;20047;-83
2023/01/08 11:00:40;;;;;;;28.17;10.48;;;;;;;-7.16;32.01;101248.38;4788468;30;20051;-82
2023/01/08 11:03:17;;;;;;;26.20;11.00;;;;;;;-6.07;32.51;101453.44;4789290;30;20130;-80
2023/01/08 11:05:43;;;;;;;24.77;10.20;;;;;;;-6.68;31.92;101363.88;4790979;30;20043;-80
2023/01/08 11:08:17;;;;;;;25.83;10.10;;;;;;;-6.62;32.49;101412.50;4803356;29;20047;-83
2023/01/08 11:10:58;;;;;;;19.45;9.20;;;;;;;-6.92;32.58;101378.72;4788660;29;20059;-80
2023/01/08 11:13:25;;;;;;;26.00;8.98;;;;;;;-6.97;33.31;101417.91;4803742;29;20093;-80
2023/01/08 11:16:06;;;;;;;25.63;10.25;;;;;;;-7.44;33.44;101368.31;4790048;29;20110;-80
2023/01/08 11:18:50;;;;;;;22.83;9.63;;;;;;;-7.26;33.48;101414.59;4773185;30;20171;-82
2023/01/08 11:21:29;;;;;;;20.77;8.20;;;;;;;-7.36;34.00;101416.19;4789083;30;20080;-82
2023/01/08 11:24:11;;;;;;;22.55;8.52;;;;;;;-7.40;33.94;101440.34;4787943;30;20054;-83
2023/01/08 11:27:12;;;;;;;20.98;9.05;;;;;;;-7.52;34.49;101440.13;4788874;30;20092;-81
2023/01/08 11:29:51;;;;;;;19.37;8.17;;;;;;;-8.12;34.45;101338.66;4787341;29;20417;-82
2023/01/08 11:32:55;;;;;;;18.08;8.20;;;;;;;-7.51;35.00;101441.00;4803369;29;20296;-84
2023/01/08 11:35:49;;;;;;;25.73;10.77;;;;;;;-8.25;34.89;101336.66;4789144;29;20100;-83